sensor_id;sensor_type;location;lat;lon;timestamp;pressure;altitude;pressure_sealevel;temperature;humidity
18985;BME280;9626;52.552;13.436;2022-12-18T00:01:05;102645.00;;;-6.39;100.00
18985;BME280;9626;52.552;13.436;2022-12-18T00:03:39;102639.19;;;-6.37;100.00
18985;BME280;9626;52.552;13.436;2022-12-18T00:06:05;102647.34;;;-6.42;100.00
18985;BME280;9626;52.552;13.436;2022-12-18T00:08:31;102655.84;;;-6.43;100.00
18985;BME280;9626;52.552;13.436;2022-12-18T00:11:04;102654.44;;;-6.40;100.00
18985;BME280;9626;52.552;13.436;2022-12-18T00:13:30;102664.41;;;-6.55;100.00
18985;BME280;9626;52.552;13.436;2022-12-18T00:16:02;102660.94;;;-6.66;100.00
18985;BME280;9626;52.552;13.436;2022-12-18T00:18:28;102668.28;;;-6.60;100.00
18985;BME280;9626;52.552;13.436;2022-12-18T00:20:58;102663.13;;;-6.60;100.00
18985;BME280;9626;52.552;13.436;2022-12-18T00:23:24;102657.72;;;-6.63;100.00
18985;BME280;9626;52.552;13.436;2022-12-18T00:25:50;102658.78;;;-6.61;100.00
18985;BME280;9626;52.552;13.436;2022-12-18T00:28:16;102661.88;;;-6.65;100.00
18985;BME280;9626;52.552;13.436;2022-12-18T00:30:42;102659.03;;;-6.68;100.00
18985;BME280;9626;52.552;13.436;2022-12-18T00:33:08;102662.66;;;-6.76;100.00
18985;BME280;9626;52.552;13.436;2022-12-18T00:35:35;102664.97;;;-6.80;100.00
18985;BME280;9626;52.552;13.436;2022-12-18T00:38:01;102664.47;;;-6.75;100.00
18985;BME280;9626;52.552;13.436;2022-12-18T00:40:27;102658.28;;;-6.77;100.00
18985;BME280;9626;52.552;13.436;2022-12-18T00:42:53;102659.06;;;-6.78;100.00
18985;BME280;9626;52.552;13.436;2022-12-18T00:45:26;102658.28;;;-6.88;100.00
18985;BME280;9626;52.552;13.436;2022-12-18T00:47:53;102656.25;;;-6.92;100.00
18985;BME280;9626;52.552;13.436;2022-12-18T00:50:20;102650.03;;;-6.84;100.00
18985;BME280;9626;52.552;13.436;2022-12-18T00:52:46;102655.31;;;-6.82;100.00
18985;BME280;9626;52.552;13.436;2022-12-18T00:55:12;102651.22;;;-6.80;100.00
18985;BME280;9626;52.552;13.436;2022-12-18T00:57:39;102652.34;;;-6.76;100.00
18985;BME280;9626;52.552;13.436;2022-12-18T01:00:07;102644.06;;;-6.62;100.00
18985;BME280;9626;52.552;13.436;2022-12-18T01:02:34;102652.03;;;-6.59;100.00
18985;BME280;9626;52.552;13.436;2022-12-18T01:05:00;102646.88;;;-6.59;100.00
18985;BME280;9626;52.552;13.436;2022-12-18T01:07:26;102649.75;;;-6.66;100.00
18985;BME280;9626;52.552;13.436;2022-12-18T01:09:52;102647.69;;;-6.70;100.00
18985;BME280;9626;52.552;13.436;2022-12-18T01:12:18;102661.41;;;-6.92;100.00
18985;BME280;9626;52.552;13.436;2022-12-18T01:14:46;102657.66;;;-6.85;100.00
18985;BME280;9626;52.552;13.436;2022-12-18T01:17:16;102654.06;;;-6.98;100.00
18985;BME280;9626;52.552;13.436;2022-12-18T01:19:42;102673.25;;;-7.15;100.00
18985;BME280;9626;52.552;13.436;2022-12-18T01:22:08;102673.50;;;-7.22;100.00
18985;BME280;9626;52.552;13.436;2022-12-18T01:24:34;102690.00;;;-7.20;100.00
18985;BME280;9626;52.552;13.436;2022-12-18T01:27:00;102679.69;;;-7.30;100.00
18985;BME280;9626;52.552;13.436;2022-12-18T01:29:26;102687.66;;;-7.27;100.00
18985;BME280;9626;52.552;13.436;2022-12-18T01:31:55;102693.34;;;-7.10;100.00
18985;BME280;9626;52.552;13.436;2022-12-18T01:34:21;102689.59;;;-7.04;100.00
18985;BME280;9626;52.552;13.436;2022-12-18T01:36:48;102683.44;;;-7.06;100.00
18985;BME280;9626;52.552;13.436;2022-12-18T01:39:14;102685.34;;;-7.14;100.00
18985;BME280;9626;52.552;13.436;2022-12-18T01:41:41;102685.88;;;-7.18;100.00
18985;BME280;9626;52.552;13.436;2022-12-18T01:47:48;102694.13;;;-6.91;100.00
18985;BME280;9626;52.552;13.436;2022-12-18T01:50:22;102686.53;;;-7.10;100.00
18985;BME280;9626;52.552;13.436;2022-12-18T01:53:11;102692.28;;;-7.23;100.00
18985;BME280;9626;52.552;13.436;2022-12-18T01:55:43;102690.75;;;-7.31;100.00
18985;BME280;9626;52.552;13.436;2022-12-18T01:58:11;102692.56;;;-7.30;100.00
18985;BME280;9626;52.552;13.436;2022-12-18T02:00:37;102700.91;;;-7.33;100.00
18985;BME280;9626;52.552;13.436;2022-12-18T02:03:03;102701.56;;;-7.35;100.00
18985;BME280;9626;52.552;13.436;2022-12-18T02:14:15;102700.00;;;-7.43;100.00
18985;BME280;9626;52.552;13.436;2022-12-18T02:16:51;102707.75;;;-7.33;100.00
18985;BME280;9626;52.552;13.436;2022-12-18T02:22:40;102694.47;;;-7.38;100.00
18985;BME280;9626;52.552;13.436;2022-12-18T02:27:56;102694.47;;;-7.38;100.00
18985;BME280;9626;52.552;13.436;2022-12-18T02:30:23;102692.81;;;-7.37;100.00
18985;BME280;9626;52.552;13.436;2022-12-18T02:32:52;102707.22;;;-7.39;100.00
18985;BME280;9626;52.552;13.436;2022-12-18T02:35:23;102704.38;;;-7.32;100.00
18985;BME280;9626;52.552;13.436;2022-12-18T02:37:53;102717.13;;;-7.44;100.00
18985;BME280;9626;52.552;13.436;2022-12-18T02:40:22;102710.84;;;-7.37;100.00
18985;BME280;9626;52.552;13.436;2022-12-18T02:43:20;102716.00;;;-7.37;100.00
18985;BME280;9626;52.552;13.436;2022-12-18T02:46:30;102716.22;;;-7.44;100.00
18985;BME280;9626;52.552;13.436;2022-12-18T02:55:43;102729.84;;;-7.56;100.00
18985;BME280;9626;52.552;13.436;2022-12-18T02:57:42;102722.25;;;-7.54;100.00
18985;BME280;9626;52.552;13.436;2022-12-18T03:00:16;102716.47;;;-7.52;100.00
18985;BME280;9626;52.552;13.436;2022-12-18T03:02:48;102720.34;;;-7.47;100.00
18985;BME280;9626;52.552;13.436;2022-12-18T03:05:30;102718.53;;;-7.48;100.00
18985;BME280;9626;52.552;13.436;2022-12-18T03:08:08;102723.94;;;-7.44;100.00
18985;BME280;9626;52.552;13.436;2022-12-18T03:10:42;102723.84;;;-7.36;100.00
18985;BME280;9626;52.552;13.436;2022-12-18T03:13:14;102716.25;;;-7.34;100.00
18985;BME280;9626;52.552;13.436;2022-12-18T03:15:46;102714.72;;;-7.22;100.00
18985;BME280;9626;52.552;13.436;2022-12-18T03:18:27;102715.75;;;-7.20;100.00
18985;BME280;9626;52.552;13.436;2022-12-18T03:20:58;102724.75;;;-7.25;100.00
18985;BME280;9626;52.552;13.436;2022-12-18T03:23:28;102715.69;;;-7.40;100.00
18985;BME280;9626;52.552;13.436;2022-12-18T03:25:57;102717.38;;;-7.41;100.00
18985;BME280;9626;52.552;13.436;2022-12-18T03:28:28;102721.53;;;-7.43;100.00
18985;BME280;9626;52.552;13.436;2022-12-18T03:30:59;102726.38;;;-7.46;100.00
18985;BME280;9626;52.552;13.436;2022-12-18T03:33:30;102724.47;;;-7.38;100.00
18985;BME280;9626;52.552;13.436;2022-12-18T03:35:57;102726.28;;;-7.37;100.00
18985;BME280;9626;52.552;13.436;2022-12-18T03:38:23;102723.72;;;-7.37;100.00
18985;BME280;9626;52.552;13.436;2022-12-18T03:43:59;102725.75;;;-7.54;100.00
18985;BME280;9626;52.552;13.436;2022-12-18T03:46:37;102713.13;;;-7.51;100.00
18985;BME280;9626;52.552;13.436;2022-12-18T03:49:16;102714.41;;;-7.56;100.00
18985;BME280;9626;52.552;13.436;2022-12-18T03:52:06;102731.78;;;-7.53;100.00
18985;BME280;9626;52.552;13.436;2022-12-18T03:54:35;102732.66;;;-7.53;100.00
18985;BME280;9626;52.552;13.436;2022-12-18T03:57:18;102739.25;;;-7.56;100.00
18985;BME280;9626;52.552;13.436;2022-12-18T03:59:47;102737.50;;;-7.76;100.00
18985;BME280;9626;52.552;13.436;2022-12-18T04:02:16;102736.19;;;-7.82;100.00
18985;BME280;9626;52.552;13.436;2022-12-18T04:04:44;102733.53;;;-7.73;100.00
18985;BME280;9626;52.552;13.436;2022-12-18T04:07:13;102736.63;;;-7.77;100.00
18985;BME280;9626;52.552;13.436;2022-12-18T04:09:41;102726.41;;;-7.86;100.00
18985;BME280;9626;52.552;13.436;2022-12-18T04:12:08;102723.38;;;-7.71;100.00
18985;BME280;9626;52.552;13.436;2022-12-18T04:14:34;102734.47;;;-7.62;100.00
18985;BME280;9626;52.552;13.436;2022-12-18T04:17:02;102734.22;;;-7.55;100.00
18985;BME280;9626;52.552;13.436;2022-12-18T04:19:28;102731.75;;;-7.64;100.00
18985;BME280;9626;52.552;13.436;2022-12-18T04:21:54;102738.56;;;-7.64;100.00
18985;BME280;9626;52.552;13.436;2022-12-18T04:24:20;102742.97;;;-7.63;100.00
18985;BME280;9626;52.552;13.436;2022-12-18T04:26:46;102752.50;;;-7.62;100.00
18985;BME280;9626;52.552;13.436;2022-12-18T04:29:12;102747.59;;;-7.59;100.00
18985;BME280;9626;52.552;13.436;2022-12-18T04:31:38;102739.63;;;-7.52;100.00
18985;BME280;9626;52.552;13.436;2022-12-18T04:34:04;102746.47;;;-7.52;100.00
18985;BME280;9626;52.552;13.436;2022-12-18T04:36:30;102738.56;;;-7.64;100.00
18985;BME280;9626;52.552;13.436;2022-12-18T04:38:56;102745.75;;;-7.70;100.00
18985;BME280;9626;52.552;13.436;2022-12-18T04:41:22;102745.91;;;-7.69;100.00
18985;BME280;9626;52.552;13.436;2022-12-18T04:43:48;102754.13;;;-7.73;100.00
18985;BME280;9626;52.552;13.436;2022-12-18T04:46:14;102758.31;;;-7.84;100.00
18985;BME280;9626;52.552;13.436;2022-12-18T04:48:40;102759.31;;;-7.92;100.00
18985;BME280;9626;52.552;13.436;2022-12-18T04:51:07;102746.66;;;-7.99;100.00
18985;BME280;9626;52.552;13.436;2022-12-18T04:53:33;102739.38;;;-7.94;100.00
18985;BME280;9626;52.552;13.436;2022-12-18T04:56:09;102745.16;;;-7.97;100.00
18985;BME280;9626;52.552;13.436;2022-12-18T04:58:36;102750.91;;;-8.00;100.00
18985;BME280;9626;52.552;13.436;2022-12-18T05:01:03;102760.00;;;-8.03;100.00
18985;BME280;9626;52.552;13.436;2022-12-18T05:03:29;102757.69;;;-8.10;100.00
18985;BME280;9626;52.552;13.436;2022-12-18T05:05:56;102760.47;;;-8.18;100.00
18985;BME280;9626;52.552;13.436;2022-12-18T05:08:22;102765.13;;;-8.13;100.00
18985;BME280;9626;52.552;13.436;2022-12-18T05:10:48;102763.44;;;-8.13;100.00
18985;BME280;9626;52.552;13.436;2022-12-18T05:13:14;102763.22;;;-8.06;100.00
18985;BME280;9626;52.552;13.436;2022-12-18T05:15:40;102764.63;;;-8.09;100.00
18985;BME280;9626;52.552;13.436;2022-12-18T05:18:08;102772.59;;;-8.06;100.00
18985;BME280;9626;52.552;13.436;2022-12-18T05:20:34;102779.38;;;-8.17;100.00
18985;BME280;9626;52.552;13.436;2022-12-18T05:23:00;102794.72;;;-8.08;100.00
18985;BME280;9626;52.552;13.436;2022-12-18T05:25:26;102791.66;;;-8.04;100.00
18985;BME280;9626;52.552;13.436;2022-12-18T05:27:52;102792.06;;;-8.00;100.00
18985;BME280;9626;52.552;13.436;2022-12-18T05:30:18;102794.00;;;-7.97;100.00
18985;BME280;9626;52.552;13.436;2022-12-18T05:32:44;102805.31;;;-7.95;100.00
18985;BME280;9626;52.552;13.436;2022-12-18T05:35:10;102802.97;;;-8.02;100.00
18985;BME280;9626;52.552;13.436;2022-12-18T05:37:36;102806.16;;;-7.86;100.00
18985;BME280;9626;52.552;13.436;2022-12-18T05:40:04;102800.13;;;-7.86;100.00
18985;BME280;9626;52.552;13.436;2022-12-18T05:42:30;102799.19;;;-7.87;100.00
18985;BME280;9626;52.552;13.436;2022-12-18T05:44:56;102799.38;;;-7.75;100.00
18985;BME280;9626;52.552;13.436;2022-12-18T05:47:22;102801.09;;;-7.65;100.00
18985;BME280;9626;52.552;13.436;2022-12-18T05:49:48;102800.81;;;-7.68;100.00
18985;BME280;9626;52.552;13.436;2022-12-18T05:52:14;102804.47;;;-7.66;100.00
18985;BME280;9626;52.552;13.436;2022-12-18T05:54:40;102800.31;;;-7.64;100.00
18985;BME280;9626;52.552;13.436;2022-12-18T05:57:06;102799.56;;;-7.63;100.00
18985;BME280;9626;52.552;13.436;2022-12-18T05:59:32;102801.66;;;-7.49;100.00
18985;BME280;9626;52.552;13.436;2022-12-18T06:01:58;102801.66;;;-7.49;100.00
18985;BME280;9626;52.552;13.436;2022-12-18T06:04:26;102810.13;;;-7.60;100.00
18985;BME280;9626;52.552;13.436;2022-12-18T06:06:53;102811.88;;;-7.69;100.00
18985;BME280;9626;52.552;13.436;2022-12-18T06:09:19;102813.97;;;-7.65;100.00
18985;BME280;9626;52.552;13.436;2022-12-18T06:11:45;102821.72;;;-7.55;100.00
18985;BME280;9626;52.552;13.436;2022-12-18T06:14:11;102826.19;;;-7.62;100.00
18985;BME280;9626;52.552;13.436;2022-12-18T06:16:37;102816.97;;;-7.50;100.00
18985;BME280;9626;52.552;13.436;2022-12-18T06:19:04;102825.44;;;-7.61;100.00
18985;BME280;9626;52.552;13.436;2022-12-18T06:21:31;102828.88;;;-7.71;100.00
18985;BME280;9626;52.552;13.436;2022-12-18T06:23:58;102822.03;;;-7.71;100.00
18985;BME280;9626;52.552;13.436;2022-12-18T06:26:24;102821.97;;;-7.62;100.00
18985;BME280;9626;52.552;13.436;2022-12-18T06:28:50;102828.75;;;-7.62;100.00
18985;BME280;9626;52.552;13.436;2022-12-18T06:31:16;102839.75;;;-7.55;100.00
18985;BME280;9626;52.552;13.436;2022-12-18T06:33:42;102836.91;;;-7.58;100.00
18985;BME280;9626;52.552;13.436;2022-12-18T06:36:11;102834.22;;;-7.49;100.00
18985;BME280;9626;52.552;13.436;2022-12-18T06:38:40;102849.03;;;-7.47;100.00
18985;BME280;9626;52.552;13.436;2022-12-18T06:41:14;102847.28;;;-7.37;100.00
18985;BME280;9626;52.552;13.436;2022-12-18T06:43:41;102860.16;;;-7.37;100.00
18985;BME280;9626;52.552;13.436;2022-12-18T06:46:08;102864.13;;;-7.41;100.00
18985;BME280;9626;52.552;13.436;2022-12-18T06:48:34;102870.25;;;-7.49;100.00
18985;BME280;9626;52.552;13.436;2022-12-18T06:51:01;102856.63;;;-7.48;100.00
18985;BME280;9626;52.552;13.436;2022-12-18T06:53:27;102855.56;;;-7.60;100.00
18985;BME280;9626;52.552;13.436;2022-12-18T06:56:02;102872.50;;;-7.62;100.00
18985;BME280;9626;52.552;13.436;2022-12-18T06:58:29;102877.75;;;-7.71;100.00
18985;BME280;9626;52.552;13.436;2022-12-18T07:01:03;102893.47;;;-7.68;100.00
18985;BME280;9626;52.552;13.436;2022-12-18T07:03:30;102893.47;;;-7.68;100.00
18985;BME280;9626;52.552;13.436;2022-12-18T07:05:56;102883.44;;;-7.65;100.00
18985;BME280;9626;52.552;13.436;2022-12-18T07:08:22;102877.03;;;-7.60;100.00
18985;BME280;9626;52.552;13.436;2022-12-18T07:10:48;102863.91;;;-7.63;100.00
18985;BME280;9626;52.552;13.436;2022-12-18T07:13:17;102863.78;;;-7.65;100.00
18985;BME280;9626;52.552;13.436;2022-12-18T07:15:43;102866.47;;;-7.63;100.00
18985;BME280;9626;52.552;13.436;2022-12-18T07:18:09;102879.88;;;-7.57;100.00
18985;BME280;9626;52.552;13.436;2022-12-18T07:20:36;102869.81;;;-7.64;100.00
18985;BME280;9626;52.552;13.436;2022-12-18T07:23:03;102874.34;;;-7.81;100.00
18985;BME280;9626;52.552;13.436;2022-12-18T07:25:37;102886.22;;;-7.72;100.00
18985;BME280;9626;52.552;13.436;2022-12-18T07:28:04;102886.38;;;-7.71;100.00
18985;BME280;9626;52.552;13.436;2022-12-18T07:30:30;102885.66;;;-7.78;100.00
18985;BME280;9626;52.552;13.436;2022-12-18T07:32:56;102877.69;;;-7.82;100.00
18985;BME280;9626;52.552;13.436;2022-12-18T07:35:22;102879.00;;;-7.76;100.00
18985;BME280;9626;52.552;13.436;2022-12-18T07:37:48;102877.47;;;-7.74;100.00
18985;BME280;9626;52.552;13.436;2022-12-18T07:40:14;102880.34;;;-7.71;100.00
18985;BME280;9626;52.552;13.436;2022-12-18T07:42:40;102871.53;;;-7.54;100.00
18985;BME280;9626;52.552;13.436;2022-12-18T07:45:06;102881.81;;;-7.54;100.00
18985;BME280;9626;52.552;13.436;2022-12-18T07:47:35;102876.03;;;-7.52;100.00
18985;BME280;9626;52.552;13.436;2022-12-18T07:50:03;102878.59;;;-7.62;100.00
18985;BME280;9626;52.552;13.436;2022-12-18T07:52:29;102881.28;;;-7.60;100.00
18985;BME280;9626;52.552;13.436;2022-12-18T07:54:58;102876.56;;;-7.75;100.00
18985;BME280;9626;52.552;13.436;2022-12-18T07:57:24;102867.47;;;-7.71;100.00
18985;BME280;9626;52.552;13.436;2022-12-18T07:59:50;102870.22;;;-7.59;100.00
18985;BME280;9626;52.552;13.436;2022-12-18T08:02:16;102881.09;;;-7.72;100.00
18985;BME280;9626;52.552;13.436;2022-12-18T08:04:42;102881.34;;;-7.69;100.00
18985;BME280;9626;52.552;13.436;2022-12-18T08:07:08;102886.84;;;-7.56;100.00
18985;BME280;9626;52.552;13.436;2022-12-18T08:09:35;102889.16;;;-7.59;100.00
18985;BME280;9626;52.552;13.436;2022-12-18T08:12:01;102889.28;;;-7.57;100.00
18985;BME280;9626;52.552;13.436;2022-12-18T08:14:27;102900.91;;;-7.52;100.00
18985;BME280;9626;52.552;13.436;2022-12-18T08:16:53;102883.63;;;-7.53;100.00
18985;BME280;9626;52.552;13.436;2022-12-18T08:19:19;102887.47;;;-7.58;100.00
18985;BME280;9626;52.552;13.436;2022-12-18T08:21:45;102887.09;;;-7.53;100.00
18985;BME280;9626;52.552;13.436;2022-12-18T08:24:11;102897.88;;;-7.57;100.00
18985;BME280;9626;52.552;13.436;2022-12-18T08:26:37;102901.38;;;-7.56;100.00
18985;BME280;9626;52.552;13.436;2022-12-18T08:29:03;102901.16;;;-7.49;100.00
18985;BME280;9626;52.552;13.436;2022-12-18T08:31:30;102901.22;;;-7.39;100.00
18985;BME280;9626;52.552;13.436;2022-12-18T08:33:56;102898.84;;;-7.46;100.00
18985;BME280;9626;52.552;13.436;2022-12-18T08:36:23;102911.72;;;-7.46;100.00
18985;BME280;9626;52.552;13.436;2022-12-18T08:38:49;102908.19;;;-7.57;100.00
18985;BME280;9626;52.552;13.436;2022-12-18T08:41:17;102907.78;;;-7.61;100.00
18985;BME280;9626;52.552;13.436;2022-12-18T08:43:43;102910.34;;;-7.61;100.00
18985;BME280;9626;52.552;13.436;2022-12-18T08:46:34;102916.97;;;-7.55;100.00
18985;BME280;9626;52.552;13.436;2022-12-18T08:49:00;102920.56;;;-7.53;100.00
18985;BME280;9626;52.552;13.436;2022-12-18T08:51:26;102916.84;;;-7.56;100.00
18985;BME280;9626;52.552;13.436;2022-12-18T08:53:52;102919.31;;;-7.48;100.00
18985;BME280;9626;52.552;13.436;2022-12-18T08:56:18;102919.66;;;-7.53;100.00
18985;BME280;9626;52.552;13.436;2022-12-18T08:58:44;102926.75;;;-7.51;100.00
18985;BME280;9626;52.552;13.436;2022-12-18T09:01:11;102936.09;;;-7.61;100.00
18985;BME280;9626;52.552;13.436;2022-12-18T09:03:38;102934.72;;;-7.58;100.00
18985;BME280;9626;52.552;13.436;2022-12-18T09:06:04;102928.97;;;-7.45;100.00
18985;BME280;9626;52.552;13.436;2022-12-18T09:08:30;102921.66;;;-7.40;100.00
18985;BME280;9626;52.552;13.436;2022-12-18T09:10:56;102931.63;;;-7.35;100.00
18985;BME280;9626;52.552;13.436;2022-12-18T09:13:22;102935.91;;;-7.25;100.00
18985;BME280;9626;52.552;13.436;2022-12-18T09:15:51;102948.03;;;-7.24;100.00
18985;BME280;9626;52.552;13.436;2022-12-18T09:18:19;102948.47;;;-7.28;100.00
18985;BME280;9626;52.552;13.436;2022-12-18T09:20:45;102947.03;;;-7.16;100.00
18985;BME280;9626;52.552;13.436;2022-12-18T09:23:12;102949.72;;;-7.14;100.00
18985;BME280;9626;52.552;13.436;2022-12-18T09:25:38;102941.91;;;-7.05;100.00
18985;BME280;9626;52.552;13.436;2022-12-18T09:28:09;102942.53;;;-7.08;100.00
18985;BME280;9626;52.552;13.436;2022-12-18T09:30:40;102948.75;;;-7.06;100.00
18985;BME280;9626;52.552;13.436;2022-12-18T09:33:06;102949.88;;;-7.13;100.00
18985;BME280;9626;52.552;13.436;2022-12-18T09:35:35;102942.63;;;-7.17;100.00
18985;BME280;9626;52.552;13.436;2022-12-18T09:38:01;102945.03;;;-6.99;100.00
18985;BME280;9626;52.552;13.436;2022-12-18T09:40:34;102943.91;;;-6.82;100.00
18985;BME280;9626;52.552;13.436;2022-12-18T09:43:05;102934.78;;;-6.68;100.00
18985;BME280;9626;52.552;13.436;2022-12-18T09:45:41;102929.34;;;-6.82;100.00
18985;BME280;9626;52.552;13.436;2022-12-18T09:48:18;102923.03;;;-6.85;100.00
18985;BME280;9626;52.552;13.436;2022-12-18T09:50:46;102924.97;;;-6.83;100.00
18985;BME280;9626;52.552;13.436;2022-12-18T09:53:20;102919.72;;;-6.74;100.00
18985;BME280;9626;52.552;13.436;2022-12-18T09:55:48;102915.31;;;-6.75;100.00
18985;BME280;9626;52.552;13.436;2022-12-18T09:58:34;102913.66;;;-6.74;100.00
18985;BME280;9626;52.552;13.436;2022-12-18T10:01:01;102906.94;;;-6.72;100.00
18985;BME280;9626;52.552;13.436;2022-12-18T10:03:27;102894.47;;;-6.68;100.00
18985;BME280;9626;52.552;13.436;2022-12-18T10:06:11;102888.44;;;-6.58;100.00
18985;BME280;9626;52.552;13.436;2022-12-18T10:08:48;102883.91;;;-6.60;100.00
18985;BME280;9626;52.552;13.436;2022-12-18T10:14:19;102870.25;;;-6.59;100.00
18985;BME280;9626;52.552;13.436;2022-12-18T10:19:51;102881.72;;;-6.46;100.00
18985;BME280;9626;52.552;13.436;2022-12-18T10:24:58;102876.81;;;-6.42;100.00
18985;BME280;9626;52.552;13.436;2022-12-18T10:27:28;102875.16;;;-6.32;100.00
18985;BME280;9626;52.552;13.436;2022-12-18T10:29:54;102882.78;;;-6.23;100.00
18985;BME280;9626;52.552;13.436;2022-12-18T10:32:24;102881.09;;;-6.22;100.00
18985;BME280;9626;52.552;13.436;2022-12-18T10:34:52;102868.84;;;-6.25;100.00
18985;BME280;9626;52.552;13.436;2022-12-18T10:37:24;102867.91;;;-6.15;100.00
18985;BME280;9626;52.552;13.436;2022-12-18T10:40:13;102872.44;;;-6.13;100.00
18985;BME280;9626;52.552;13.436;2022-12-18T10:42:40;102876.53;;;-6.04;100.00
18985;BME280;9626;52.552;13.436;2022-12-18T10:45:15;102857.84;;;-6.02;100.00
18985;BME280;9626;52.552;13.436;2022-12-18T10:47:50;102857.16;;;-5.89;100.00
18985;BME280;9626;52.552;13.436;2022-12-18T10:50:37;102857.06;;;-6.01;100.00
18985;BME280;9626;52.552;13.436;2022-12-18T10:53:04;102851.16;;;-6.00;100.00
18985;BME280;9626;52.552;13.436;2022-12-18T10:55:35;102848.78;;;-5.97;100.00
18985;BME280;9626;52.552;13.436;2022-12-18T10:58:32;102840.63;;;-5.91;100.00
18985;BME280;9626;52.552;13.436;2022-12-18T11:01:05;102835.47;;;-5.81;100.00
18985;BME280;9626;52.552;13.436;2022-12-18T11:03:34;102828.72;;;-5.79;100.00
18985;BME280;9626;52.552;13.436;2022-12-18T11:06:19;102832.34;;;-5.77;100.00
18985;BME280;9626;52.552;13.436;2022-12-18T11:09:03;102832.72;;;-5.82;100.00
18985;BME280;9626;52.552;13.436;2022-12-18T11:11:33;102838.03;;;-5.91;100.00
18985;BME280;9626;52.552;13.436;2022-12-18T11:14:19;102840.13;;;-5.97;100.00
18985;BME280;9626;52.552;13.436;2022-12-18T11:16:48;102840.03;;;-5.99;100.00
18985;BME280;9626;52.552;13.436;2022-12-18T11:21:57;102836.00;;;-5.95;100.00
18985;BME280;9626;52.552;13.436;2022-12-18T11:24:33;102834.19;;;-5.96;100.00
18985;BME280;9626;52.552;13.436;2022-12-18T11:27:02;102841.28;;;-5.94;100.00
18985;BME280;9626;52.552;13.436;2022-12-18T11:29:39;102842.44;;;-5.90;100.00
18985;BME280;9626;52.552;13.436;2022-12-18T11:35:42;102835.69;;;-5.78;100.00
18985;BME280;9626;52.552;13.436;2022-12-18T11:37:43;102838.94;;;-5.90;100.00
18985;BME280;9626;52.552;13.436;2022-12-18T11:40:16;102833.63;;;-5.82;100.00
18985;BME280;9626;52.552;13.436;2022-12-18T11:42:55;102833.13;;;-5.78;100.00
18985;BME280;9626;52.552;13.436;2022-12-18T11:45:29;102839.94;;;-5.78;100.00
18985;BME280;9626;52.552;13.436;2022-12-18T11:48:09;102841.09;;;-5.74;100.00
18985;BME280;9626;52.552;13.436;2022-12-18T11:50:54;102852.06;;;-5.77;100.00
18985;BME280;9626;52.552;13.436;2022-12-18T11:53:22;102850.66;;;-5.84;100.00
18985;BME280;9626;52.552;13.436;2022-12-18T11:59:13;102874.25;;;-5.69;100.00
18985;BME280;9626;52.552;13.436;2022-12-18T12:01:52;102878.44;;;-5.91;100.00
18985;BME280;9626;52.552;13.436;2022-12-18T12:07:03;102872.13;;;-5.95;100.00
18985;BME280;9626;52.552;13.436;2022-12-18T12:12:38;102877.97;;;-5.98;100.00
18985;BME280;9626;52.552;13.436;2022-12-18T12:20:47;102875.72;;;-5.83;100.00
18985;BME280;9626;52.552;13.436;2022-12-18T12:26:03;102877.00;;;-5.78;100.00
18985;BME280;9626;52.552;13.436;2022-12-18T12:34:18;102886.16;;;-5.71;100.00
18985;BME280;9626;52.552;13.436;2022-12-18T12:59:01;102863.28;;;-5.66;100.00
18985;BME280;9626;52.552;13.436;2022-12-18T13:01:36;102840.84;;;-5.78;100.00
18985;BME280;9626;52.552;13.436;2022-12-18T13:04:23;102837.22;;;-5.69;100.00
18985;BME280;9626;52.552;13.436;2022-12-18T13:13:11;102821.84;;;-5.68;100.00
18985;BME280;9626;52.552;13.436;2022-12-18T13:18:25;102831.44;;;-5.45;100.00
18985;BME280;9626;52.552;13.436;2022-12-18T13:25:49;102845.00;;;-5.47;100.00
18985;BME280;9626;52.552;13.436;2022-12-18T13:28:20;102843.06;;;-5.50;100.00
18985;BME280;9626;52.552;13.436;2022-12-18T13:30:56;102843.06;;;-5.50;100.00
18985;BME280;9626;52.552;13.436;2022-12-18T13:33:34;102836.38;;;-5.48;100.00
18985;BME280;9626;52.552;13.436;2022-12-18T13:39:09;102836.09;;;-5.51;100.00
18985;BME280;9626;52.552;13.436;2022-12-18T13:41:36;102834.44;;;-5.50;100.00
18985;BME280;9626;52.552;13.436;2022-12-18T13:44:25;102839.94;;;-5.46;100.00
18985;BME280;9626;52.552;13.436;2022-12-18T13:46:53;102828.00;;;-5.55;100.00
18985;BME280;9626;52.552;13.436;2022-12-18T13:49:36;102810.03;;;-5.54;100.00
18985;BME280;9626;52.552;13.436;2022-12-18T13:52:16;102808.50;;;-5.52;100.00
18985;BME280;9626;52.552;13.436;2022-12-18T13:54:50;102806.09;;;-5.38;100.00
18985;BME280;9626;52.552;13.436;2022-12-18T13:57:34;102811.63;;;-5.34;100.00
18985;BME280;9626;52.552;13.436;2022-12-18T14:02:45;102819.69;;;-5.41;100.00
18985;BME280;9626;52.552;13.436;2022-12-18T14:05:40;102799.47;;;-5.57;100.00
18985;BME280;9626;52.552;13.436;2022-12-18T14:08:12;102794.19;;;-5.58;100.00
18985;BME280;9626;52.552;13.436;2022-12-18T14:10:45;102794.75;;;-5.40;100.00
18985;BME280;9626;52.552;13.436;2022-12-18T14:13:19;102795.28;;;-5.45;100.00
18985;BME280;9626;52.552;13.436;2022-12-18T14:15:47;102792.72;;;-5.55;100.00
18985;BME280;9626;52.552;13.436;2022-12-18T14:21:00;102798.16;;;-5.52;100.00
18985;BME280;9626;52.552;13.436;2022-12-18T14:23:37;102805.53;;;-5.56;100.00
18985;BME280;9626;52.552;13.436;2022-12-18T14:26:28;102789.31;;;-5.66;100.00
18985;BME280;9626;52.552;13.436;2022-12-18T14:28:56;102786.75;;;-5.66;100.00
18985;BME280;9626;52.552;13.436;2022-12-18T14:31:25;102769.03;;;-5.61;100.00
18985;BME280;9626;52.552;13.436;2022-12-18T14:33:52;102768.25;;;-5.60;100.00
18985;BME280;9626;52.552;13.436;2022-12-18T14:36:21;102762.06;;;-5.62;100.00
18985;BME280;9626;52.552;13.436;2022-12-18T14:38:53;102762.56;;;-5.56;100.00
18985;BME280;9626;52.552;13.436;2022-12-18T14:41:21;102748.38;;;-5.61;100.00
18985;BME280;9626;52.552;13.436;2022-12-18T14:43:49;102755.63;;;-5.67;100.00